createdAt,value
2023-05-05T00:02:50.843Z,8.30
2023-05-05T00:07:57.910Z,8.29
2023-05-05T00:13:05.034Z,8.28
2023-05-05T00:18:12.739Z,8.26
2023-05-05T00:23:20.506Z,8.26
2023-05-05T00:28:27.718Z,8.26
2023-05-05T00:33:34.673Z,8.25
2023-05-05T00:38:41.648Z,8.25
2023-05-05T00:43:48.844Z,8.27
2023-05-05T00:48:56.570Z,8.28
2023-05-05T00:54:03.824Z,8.26
2023-05-05T00:59:10.834Z,8.23
2023-05-05T01:04:17.307Z,8.18
2023-05-05T01:09:33.731Z,8.13
2023-05-05T01:14:45.756Z,8.06
2023-05-05T01:20:04.317Z,7.97
2023-05-05T01:25:36.712Z,7.91
2023-05-05T01:31:07.664Z,7.88
2023-05-05T01:36:22.726Z,7.85
2023-05-05T01:41:34.574Z,7.79
2023-05-05T01:46:43.052Z,7.73
2023-05-05T01:51:52.461Z,7.64
2023-05-05T01:57:00.632Z,7.56
2023-05-05T02:02:10.258Z,7.49
2023-05-05T02:07:18.620Z,7.46
2023-05-05T02:12:26.747Z,7.43
2023-05-05T02:17:35.268Z,7.37
2023-05-05T02:22:42.370Z,7.31
2023-05-05T02:27:51.914Z,7.26
2023-05-05T02:33:06.784Z,7.25
2023-05-05T02:38:18.499Z,7.26
2023-05-05T02:43:31.130Z,7.28
2023-05-05T02:48:38.609Z,7.29
2023-05-05T02:53:45.845Z,7.27
2023-05-05T02:58:58.221Z,7.24
2023-05-05T03:04:11.781Z,7.20
2023-05-05T03:09:29.101Z,7.22
2023-05-05T03:14:41.644Z,7.26
2023-05-05T03:19:50.782Z,7.29
2023-05-05T03:24:56.339Z,7.31
2023-05-05T03:30:05.250Z,7.28
2023-05-05T03:35:14.174Z,7.22
2023-05-05T03:40:29.697Z,7.16
2023-05-05T03:45:44.607Z,7.17
2023-05-05T03:50:53.158Z,7.18
2023-05-05T03:56:01.281Z,7.19
2023-05-05T04:01:08.471Z,7.15
2023-05-05T04:06:15.008Z,7.11
2023-05-05T04:11:22.797Z,7.08
2023-05-05T04:16:31.243Z,7.05
2023-05-05T04:21:39.340Z,7.03
2023-05-05T04:26:46.492Z,7.05
2023-05-05T04:31:54.048Z,7.09
2023-05-05T04:37:01.164Z,7.16
2023-05-05T04:42:09.471Z,7.19
2023-05-05T04:47:16.784Z,7.21
2023-05-05T04:52:24.641Z,7.22
2023-05-05T04:57:32.637Z,7.25
2023-05-05T05:02:39.788Z,7.30
2023-05-05T05:07:47.394Z,7.33
2023-05-05T05:12:54.699Z,7.33
2023-05-05T05:18:01.810Z,7.36
2023-05-05T05:23:08.943Z,7.35
2023-05-05T05:28:20.765Z,7.28
2023-05-05T05:33:31.504Z,7.23
2023-05-05T05:38:39.117Z,7.24
2023-05-05T05:43:46.906Z,7.25
2023-05-05T05:48:54.085Z,7.22
2023-05-05T05:54:01.478Z,7.19
2023-05-05T05:59:10.298Z,7.18
2023-05-05T06:04:17.980Z,7.21
2023-05-05T06:09:25.312Z,7.19
2023-05-05T06:14:32.861Z,7.18
2023-05-05T06:19:41.301Z,7.17
2023-05-05T06:24:48.804Z,7.15
2023-05-05T06:29:54.987Z,7.13
2023-05-05T06:35:02.591Z,7.10
2023-05-05T06:40:11.994Z,7.07
2023-05-05T06:45:19.557Z,7.07
2023-05-05T06:50:27.163Z,7.07
2023-05-05T06:55:34.319Z,7.11
2023-05-05T07:00:42.768Z,7.13
2023-05-05T07:05:49.726Z,7.15
2023-05-05T07:10:56.756Z,7.20
2023-05-05T07:16:04.047Z,7.26
2023-05-05T07:21:11.128Z,7.27
2023-05-05T07:26:18.596Z,7.27
2023-05-05T07:31:25.970Z,7.31
2023-05-05T07:36:33.116Z,7.39
2023-05-05T07:41:40.269Z,7.50
2023-05-05T07:46:47.719Z,7.59
2023-05-05T07:51:55.571Z,7.68
2023-05-05T07:57:03.764Z,7.82
2023-05-05T08:02:10.954Z,7.97
2023-05-05T08:07:18.175Z,8.05
2023-05-05T08:12:25.228Z,8.17
2023-05-05T08:17:44.200Z,8.33
2023-05-05T08:22:53.027Z,8.47
2023-05-05T08:28:00.069Z,8.58
2023-05-05T08:33:07.310Z,8.62
2023-05-05T08:38:14.973Z,8.70
2023-05-05T08:43:24.039Z,8.82
2023-05-05T08:48:34.771Z,8.96
2023-05-05T08:53:53.472Z,8.97
2023-05-05T08:59:04.277Z,8.90
2023-05-05T09:04:12.677Z,8.91
2023-05-05T09:09:20.698Z,9.05
2023-05-05T09:14:27.828Z,9.26
2023-05-05T09:19:53.814Z,9.43
2023-05-05T09:25:03.460Z,9.77
2023-05-05T09:30:12.691Z,10.19
2023-05-05T09:35:20.849Z,10.55
2023-05-05T09:40:28.321Z,10.78
2023-05-05T09:45:35.397Z,11.05
2023-05-05T09:50:47.027Z,11.22
2023-05-05T09:56:01.498Z,11.28
2023-05-05T10:01:22.573Z,11.29
2023-05-05T10:06:44.233Z,11.58
2023-05-05T10:11:51.661Z,11.91
2023-05-05T10:17:01.908Z,12.06
2023-05-05T10:22:11.541Z,12.15
2023-05-05T10:27:23.818Z,12.18
2023-05-05T10:32:54.342Z,12.16
2023-05-05T10:38:04.932Z,12.16
2023-05-05T10:43:12.418Z,12.30
2023-05-05T10:48:26.830Z,12.35
2023-05-05T10:53:42.522Z,12.16
2023-05-05T10:58:59.841Z,11.91
2023-05-05T11:04:27.000Z,11.76
2023-05-05T11:09:37.216Z,11.81
2023-05-05T11:14:44.655Z,11.81
2023-05-05T11:19:52.710Z,11.79
2023-05-05T11:24:59.843Z,11.80
2023-05-05T11:30:13.283Z,11.89
2023-05-05T11:35:21.213Z,12.01
2023-05-05T11:40:33.789Z,12.13
2023-05-05T11:45:40.981Z,12.27
2023-05-05T11:50:49.519Z,12.41
2023-05-05T11:56:10.807Z,12.59
2023-05-05T12:01:18.791Z,12.74
2023-05-05T12:06:26.975Z,12.95
2023-05-05T12:11:34.316Z,13.21
2023-05-05T12:16:41.597Z,13.52
2023-05-05T12:21:48.685Z,13.82
2023-05-05T12:26:55.916Z,14.01
2023-05-05T12:32:03.276Z,13.85
2023-05-05T12:37:12.721Z,13.77
2023-05-05T12:42:20.630Z,13.90
2023-05-05T12:47:38.745Z,13.93
2023-05-05T12:52:46.921Z,14.01
2023-05-05T12:58:04.834Z,14.12
2023-05-05T13:03:20.496Z,14.28
2023-05-05T13:08:58.253Z,14.36
2023-05-05T13:14:05.665Z,14.29
2023-05-05T13:19:12.866Z,14.16
2023-05-05T13:24:31.067Z,14.07
2023-05-05T13:29:42.715Z,14.10
2023-05-05T13:34:49.921Z,14.06
2023-05-05T13:40:00.598Z,13.92
2023-05-05T13:45:09.499Z,13.88
2023-05-05T13:50:18.482Z,13.92
2023-05-05T13:55:25.633Z,13.84
2023-05-05T14:00:35.857Z,13.77
2023-05-05T14:06:03.604Z,13.84
2023-05-05T14:11:11.552Z,13.92
2023-05-05T14:16:18.860Z,13.99
2023-05-05T14:21:26.148Z,13.94
2023-05-05T14:26:33.420Z,13.82
2023-05-05T14:31:44.811Z,13.77
2023-05-05T14:36:52.453Z,13.71
2023-05-05T14:42:02.218Z,13.64
2023-05-05T14:47:18.742Z,13.63
2023-05-05T14:52:26.387Z,13.60
2023-05-05T14:57:34.082Z,13.56
2023-05-05T15:02:41.141Z,13.58
2023-05-05T15:07:54.619Z,13.59
2023-05-05T15:13:12.031Z,13.61
2023-05-05T15:18:19.379Z,13.59
2023-05-05T15:23:28.683Z,13.48
2023-05-05T15:28:36.416Z,13.44
2023-05-05T15:33:48.173Z,13.44
2023-05-05T15:38:56.740Z,13.42
2023-05-05T15:44:06.556Z,13.38
2023-05-05T15:49:13.694Z,13.24
2023-05-05T15:54:21.138Z,12.96
2023-05-05T15:59:32.148Z,12.65
2023-05-05T16:04:40.447Z,12.40
2023-05-05T16:09:47.669Z,12.23
2023-05-05T16:14:54.729Z,12.15
2023-05-05T16:20:02.154Z,12.06
2023-05-05T16:25:11.205Z,11.92
2023-05-05T16:30:18.779Z,11.78
2023-05-05T16:35:26.157Z,11.67
2023-05-05T16:40:33.194Z,11.55
2023-05-05T16:45:40.295Z,11.42
2023-05-05T16:50:47.285Z,11.28
2023-05-05T16:55:55.049Z,11.13
2023-05-05T17:01:03.547Z,10.97
2023-05-05T17:06:11.209Z,10.80
2023-05-05T17:11:18.689Z,10.60
2023-05-05T17:16:26.330Z,10.38
2023-05-05T17:21:33.871Z,10.18
2023-05-05T17:26:45.963Z,9.99
2023-05-05T17:31:59.762Z,9.81
2023-05-05T17:37:16.446Z,9.61
2023-05-05T17:42:27.175Z,9.40
2023-05-05T17:47:34.388Z,9.22
2023-05-05T17:52:42.141Z,9.08
2023-05-05T17:57:49.097Z,8.95
2023-05-05T18:02:56.160Z,8.82
2023-05-05T18:08:03.288Z,8.70
2023-05-05T18:13:11.870Z,8.56
2023-05-05T18:18:18.973Z,8.41
2023-05-05T18:23:26.118Z,8.24
2023-05-05T18:28:33.181Z,8.09
2023-05-05T18:33:40.831Z,7.96
2023-05-05T18:38:48.097Z,7.81
2023-05-05T18:43:55.286Z,7.67
2023-05-05T18:49:02.390Z,7.53
2023-05-05T18:54:10.143Z,7.41
2023-05-05T18:59:19.868Z,7.29
2023-05-05T19:04:31.746Z,7.16
2023-05-05T19:09:40.658Z,7.03
2023-05-05T19:14:47.905Z,6.91
2023-05-05T19:19:55.073Z,6.78
2023-05-05T19:25:02.073Z,6.66
2023-05-05T19:30:11.231Z,6.56
2023-05-05T19:35:18.792Z,6.46
2023-05-05T19:40:26.047Z,6.36
2023-05-05T19:45:35.858Z,6.27
2023-05-05T19:50:43.248Z,6.19
2023-05-05T19:55:50.317Z,6.11
2023-05-05T20:00:57.527Z,6.03
2023-05-05T20:06:04.992Z,5.96
2023-05-05T20:11:12.603Z,5.90
2023-05-05T20:16:19.999Z,5.86
2023-05-05T20:21:27.298Z,5.83
2023-05-05T20:26:34.820Z,5.79
2023-05-05T20:31:41.932Z,5.75
2023-05-05T20:36:49.286Z,5.71
2023-05-05T20:41:56.741Z,5.66
2023-05-05T20:47:06.126Z,5.62
2023-05-05T20:52:13.195Z,5.58
2023-05-05T20:57:20.525Z,5.55
2023-05-05T21:02:27.917Z,5.51
2023-05-05T21:07:37.034Z,5.47
2023-05-05T21:12:44.023Z,5.45
2023-05-05T21:17:51.968Z,5.47
2023-05-05T21:23:03.733Z,5.49
2023-05-05T21:28:11.306Z,5.50
2023-05-05T21:33:18.224Z,5.52
2023-05-05T21:38:25.194Z,5.53
2023-05-05T21:43:32.216Z,5.54
2023-05-05T21:48:41.432Z,5.53
2023-05-05T21:53:48.450Z,5.52
2023-05-05T21:58:55.419Z,5.51
2023-05-05T22:04:02.520Z,5.52
2023-05-05T22:09:09.694Z,5.55
2023-05-05T22:14:16.720Z,5.55
2023-05-05T22:19:23.657Z,5.52
2023-05-05T22:24:30.900Z,5.49
2023-05-05T22:29:39.016Z,5.45
2023-05-05T22:34:45.998Z,5.43
2023-05-05T22:39:52.957Z,5.39
2023-05-05T22:44:59.865Z,5.34
2023-05-05T22:50:08.772Z,5.30
2023-05-05T22:55:16.204Z,5.28
2023-05-05T23:00:23.132Z,5.27
2023-05-05T23:05:30.494Z,5.28
2023-05-05T23:10:37.360Z,5.29
2023-05-05T23:15:44.409Z,5.28
2023-05-05T23:20:51.420Z,5.25
2023-05-05T23:25:58.445Z,5.20
2023-05-05T23:31:05.402Z,5.17
2023-05-05T23:36:12.591Z,5.12
2023-05-05T23:41:19.498Z,5.07
2023-05-05T23:46:26.504Z,5.02
2023-05-05T23:51:33.417Z,4.98
2023-05-05T23:56:40.976Z,4.96
